Time;durP1;ratioP1;P1;durP2;ratioP2;P2;SDS_P1;SDS_P2;PMS_P1;PMS_P2;Temp;Humidity;BMP_temperature;BMP_pressure;BME280_temperature;BME280_humidity;BME280_pressure;Samples;Min_cycle;Max_cycle;Signal;HPM_P1;HPM_P2
2022/08/06 00:00:24;;;;;;;;;;;;;;;;;;5141383;27;19930;-76
2022/08/06 00:02:50;;;;;;;;;;;;;;;;;;5133279;27;20030;-77
2022/08/06 00:05:16;;;;;;;;;;;;;;;;;;5138485;27;19924;-76
2022/08/06 00:07:42;;;;;;;;;;;;;;;;;;5114988;27;19927;-76
2022/08/06 00:10:08;;;;;;;;;;;;;;;;;;5132937;27;19927;-76
2022/08/06 00:12:34;;;;;;;;;;;;;;;;;;5116004;27;20014;-76
2022/08/06 00:15:00;;;;;;;;;;;;;;;;;;5132550;27;19975;-76
2022/08/06 00:17:26;;;;;;;;;;;;;;;;;;5138640;27;19930;-76
2022/08/06 00:19:52;;;;;;;;;;;;;;;;;;5139067;27;19931;-77
2022/08/06 00:22:18;;;;;;;;;;;;;;;;;;5140508;27;19923;-76
2022/08/06 00:24:43;;;;;;;;;;;;;;;;;;5136738;27;19928;-77
2022/08/06 00:27:09;;;;;;;;;;;;;;;;;;5134666;27;19976;-76
2022/08/06 00:29:35;;;;;;;;;;;;;;;;;;5139315;27;19975;-76
2022/08/06 00:32:01;;;;;;;;;;;;;;;;;;5130727;27;19937;-76
2022/08/06 00:34:27;;;;;;;;;;;;;;;;;;5137814;27;19923;-76
2022/08/06 00:36:53;;;;;;;;;;;;;;;;;;5133987;27;19976;-76
2022/08/06 00:39:19;;;;;;;;;;;;;;;;;;5132193;27;19930;-76
2022/08/06 00:41:45;;;;;;;;;;;;;;;;;;5113572;27;19982;-76
2022/08/06 00:44:11;;;;;;;;;;;;;;;;;;5113611;27;19931;-76
2022/08/06 00:46:37;;;;;;;;;;;;;;;;;;5132399;27;19931;-76
2022/08/06 00:49:03;;;;;;;;;;;;;;;;;;5142300;27;19930;-76
2022/08/06 00:51:29;;;;;;;;;;;;;;;;;;5136045;27;20289;-76
2022/08/06 00:53:55;;;;;;;;;;;;;;;;;;5120861;27;20266;-77
2022/08/06 00:56:21;;;;;;;;;;;;;;;;;;5135150;27;19930;-77
2022/08/06 00:58:47;;;;;;;;;;;;;;;;;;5123203;27;19975;-77
2022/08/06 01:01:13;;;;;;;;;;;;;;;;;;5115295;27;20292;-76
2022/08/06 01:03:39;;;;;;;;;;;;;;;;;;5138835;27;20148;-76
2022/08/06 01:06:05;;;;;;;;;;;;;;;;;;5134725;27;19919;-76
2022/08/06 01:08:30;;;;;;;;;;;;;;;;;;5138205;27;20409;-76
2022/08/06 01:10:56;;;;;;;;;;;;;;;;;;5117980;27;19930;-76
2022/08/06 01:13:22;;;;;;;;;;;;;;;;;;5140840;27;20531;-76
2022/08/06 01:15:48;;;;;;;;;;;;;;;;;;5112552;27;20279;-77
2022/08/06 01:18:14;;;;;;;;;;;;;;;;;;5132940;27;20430;-76
2022/08/06 01:20:40;;;;;;;;;;;;;;;;;;5136767;27;20412;-76
2022/08/06 01:23:06;;;;;;;;;;;;;;;;;;5135973;27;20060;-76
2022/08/06 01:25:32;;;;;;;;;;;;;;;;;;5132200;27;19924;-76
2022/08/06 01:27:58;;;;;;;;;;;;;;;;;;5131972;27;19923;-76
2022/08/06 01:30:24;;;;;;;;;;;;;;;;;;5124245;27;19976;-76
2022/08/06 01:32:50;;;;;;;;;;;;;;;;;;5132419;27;19973;-77
2022/08/06 01:35:16;;;;;;;;;;;;;;;;;;5133675;27;20369;-76
2022/08/06 01:37:42;;;;;;;;;;;;;;;;;;5133280;27;19927;-76
2022/08/06 01:40:08;;;;;;;;;;;;;;;;;;5135861;27;19966;-76
2022/08/06 01:42:35;;;;;;;;;;;;;;;;;;5137937;27;19927;-76
2022/08/06 01:45:01;;;;;;;;;;;;;;;;;;5120120;27;19938;-76
2022/08/06 01:47:27;;;;;;;;;;;;;;;;;;5140180;27;19923;-76
2022/08/06 01:49:53;;;;;;;;;;;;;;;;;;5124024;27;20369;-77
2022/08/06 01:52:19;;;;;;;;;;;;;;;;;;5111675;27;19923;-76
2022/08/06 01:54:45;;;;;;;;;;;;;;;;;;5114765;27;19923;-77
2022/08/06 01:57:11;;;;;;;;;;;;;;;;;;5145483;27;19923;-77
2022/08/06 01:59:37;;;;;;;;;;;;;;;;;;5126103;27;20385;-77
2022/08/06 02:02:03;;;;;;;;;;;;;;;;;;5143573;27;19930;-77
2022/08/06 02:04:29;;;;;;;;;;;;;;;;;;5144802;27;19923;-76
2022/08/06 02:06:55;;;;;;;;;;;;;;;;;;5115279;27;19934;-77
2022/08/06 02:09:21;;;;;;;;;;;;;;;;;;5118676;27;19957;-76
2022/08/06 02:11:47;;;;;;;;;;;;;;;;;;5114489;27;20011;-76
2022/08/06 02:14:12;;;;;;;;;;;;;;;;;;5141262;27;19923;-76
2022/08/06 02:16:38;;;;;;;;;;;;;;;;;;5135432;27;21121;-76
2022/08/06 02:19:04;;;;;;;;;;;;;;;;;;5139670;27;19933;-76
2022/08/06 02:21:30;;;;;;;;;;;;;;;;;;5144943;27;19929;-76
2022/08/06 02:23:56;;;;;;;;;;;;;;;;;;5116645;27;19930;-76
2022/08/06 02:26:22;;;;;;;;;;;;;;;;;;5136508;27;19945;-76
2022/08/06 02:28:48;;;;;;;;;;;;;;;;;;5119439;27;19963;-77
2022/08/06 02:31:14;;;;;;;;;;;;;;;;;;5117782;27;20285;-76
2022/08/06 02:33:40;;;;;;;;;;;;;;;;;;5138161;27;19934;-76
2022/08/06 02:36:06;;;;;;;;;;;;;;;;;;5141260;27;19927;-77
2022/08/06 02:38:32;;;;;;;;;;;;;;;;;;5135920;27;20020;-77
2022/08/06 02:40:58;;;;;;;;;;;;;;;;;;5135032;27;19923;-77
2022/08/06 02:43:24;;;;;;;;;;;;;;;;;;5137647;27;19934;-76
2022/08/06 02:45:50;;;;;;;;;;;;;;;;;;5139833;27;19923;-76
2022/08/06 02:48:16;;;;;;;;;;;;;;;;;;5144654;27;19930;-76
2022/08/06 02:50:42;;;;;;;;;;;;;;;;;;5140749;27;19923;-76
2022/08/06 02:53:07;;;;;;;;;;;;;;;;;;5136926;27;19923;-77
2022/08/06 02:55:33;;;;;;;;;;;;;;;;;;5139210;27;20307;-77
2022/08/06 02:57:59;;;;;;;;;;;;;;;;;;5135280;27;19971;-77
2022/08/06 03:00:25;;;;;;;;;;;;;;;;;;5117118;27;19947;-76
2022/08/06 03:02:51;;;;;;;;;;;;;;;;;;5140008;27;20282;-76
2022/08/06 03:05:17;;;;;;;;;;;;;;;;;;5140890;27;20595;-76
2022/08/06 03:07:43;;;;;;;;;;;;;;;;;;5122630;27;19968;-76
2022/08/06 03:10:09;;;;;;;;;;;;;;;;;;5137256;27;19931;-76
2022/08/06 03:12:35;;;;;;;;;;;;;;;;;;5136149;27;19974;-76
2022/08/06 03:15:02;;;;;;;;;;;;;;;;;;5139914;27;19923;-77
2022/08/06 03:17:28;;;;;;;;;;;;;;;;;;5141973;27;19930;-76
2022/08/06 03:19:54;;;;;;;;;;;;;;;;;;5136285;27;20095;-77
2022/08/06 03:22:20;;;;;;;;;;;;;;;;;;5117077;27;19942;-76
2022/08/06 03:24:46;;;;;;;;;;;;;;;;;;5133291;27;19958;-76
2022/08/06 03:27:12;;;;;;;;;;;;;;;;;;5141881;27;19923;-77
2022/08/06 03:29:38;;;;;;;;;;;;;;;;;;5140701;27;19923;-77
2022/08/06 03:32:04;;;;;;;;;;;;;;;;;;5134667;27;19978;-77
2022/08/06 03:34:29;;;;;;;;;;;;;;;;;;5132900;27;20411;-76
2022/08/06 03:36:55;;;;;;;;;;;;;;;;;;5138960;27;20381;-76
2022/08/06 03:39:21;;;;;;;;;;;;;;;;;;5134050;27;20358;-76
2022/08/06 03:41:47;;;;;;;;;;;;;;;;;;5139091;27;20297;-76
2022/08/06 03:44:13;;;;;;;;;;;;;;;;;;5119752;27;19971;-76
2022/08/06 03:46:39;;;;;;;;;;;;;;;;;;5140699;27;20331;-77
2022/08/06 03:49:05;;;;;;;;;;;;;;;;;;5141898;27;19927;-77
2022/08/06 03:51:31;;;;;;;;;;;;;;;;;;5141792;27;19973;-76
2022/08/06 03:53:57;;;;;;;;;;;;;;;;;;5115782;27;20056;-77
2022/08/06 03:56:23;;;;;;;;;;;;;;;;;;5133180;27;19969;-77
2022/08/06 03:58:49;;;;;;;;;;;;;;;;;;5135881;27;19923;-77
2022/08/06 04:01:15;;;;;;;;;;;;;;;;;;5138310;27;19927;-77
2022/08/06 04:03:41;;;;;;;;;;;;;;;;;;5141863;27;19980;-76
2022/08/06 04:06:10;;;;;;;;;;;;;;;;;;5135825;27;19924;-76
2022/08/06 04:08:36;;;;;;;;;;;;;;;;;;5135534;27;19931;-76
2022/08/06 04:11:02;;;;;;;;;;;;;;;;;;5113296;27;19923;-77
2022/08/06 04:13:28;;;;;;;;;;;;;;;;;;5138632;27;19927;-76
2022/08/06 04:15:54;;;;;;;;;;;;;;;;;;5115833;27;20018;-76
2022/08/06 04:18:20;;;;;;;;;;;;;;;;;;5137262;27;19959;-76
2022/08/06 04:20:46;;;;;;;;;;;;;;;;;;5138886;27;19973;-76
2022/08/06 04:23:12;;;;;;;;;;;;;;;;;;5115673;27;19930;-76
2022/08/06 04:25:38;;;;;;;;;;;;;;;;;;5134345;27;19967;-76
2022/08/06 04:28:04;;;;;;;;;;;;;;;;;;5135858;27;20011;-77
2022/08/06 04:30:29;;;;;;;;;;;;;;;;;;5135668;27;19923;-77
2022/08/06 04:32:55;;;;;;;;;;;;;;;;;;5135603;27;21108;-77
2022/08/06 04:35:22;;;;;;;;;;;;;;;;;;5137091;27;19930;-77
2022/08/06 04:37:48;;;;;;;;;;;;;;;;;;5132622;27;19919;-76
2022/08/06 04:40:14;;;;;;;;;;;;;;;;;;5112369;27;20468;-77
2022/08/06 04:42:39;;;;;;;;;;;;;;;;;;5132380;27;20387;-76
2022/08/06 04:45:05;;;;;;;;;;;;;;;;;;5131112;27;19931;-76
2022/08/06 04:47:31;;;;;;;;;;;;;;;;;;5137930;27;19927;-76
2022/08/06 04:49:57;;;;;;;;;;;;;;;;;;5121013;27;19958;-76
2022/08/06 04:52:23;;;;;;;;;;;;;;;;;;5137017;27;20309;-76
2022/08/06 04:54:49;;;;;;;;;;;;;;;;;;5135008;27;19931;-76
2022/08/06 04:57:15;;;;;;;;;;;;;;;;;;5136115;27;19935;-76
2022/08/06 04:59:41;;;;;;;;;;;;;;;;;;5136283;27;19968;-77
2022/08/06 05:02:07;;;;;;;;;;;;;;;;;;5111364;27;19930;-76
2022/08/06 05:04:33;;;;;;;;;;;;;;;;;;5140595;27;19962;-76
2022/08/06 05:06:59;;;;;;;;;;;;;;;;;;5138645;27;20385;-76
2022/08/06 05:09:25;;;;;;;;;;;;;;;;;;5134554;27;20448;-76
2022/08/06 05:11:52;;;;;;;;;;;;;;;;;;5132714;27;19929;-76
2022/08/06 05:14:18;;;;;;;;;;;;;;;;;;5133893;27;19928;-76
2022/08/06 05:16:43;;;;;;;;;;;;;;;;;;5139106;27;20343;-76
2022/08/06 05:19:09;;;;;;;;;;;;;;;;;;5119697;27;20307;-77
2022/08/06 05:21:35;;;;;;;;;;;;;;;;;;5139466;27;19946;-77
2022/08/06 05:24:01;;;;;;;;;;;;;;;;;;5137770;27;20039;-76
2022/08/06 05:26:27;;;;;;;;;;;;;;;;;;5119651;27;20026;-76
2022/08/06 05:28:53;;;;;;;;;;;;;;;;;;5143361;27;19973;-77
2022/08/06 05:31:19;;;;;;;;;;;;;;;;;;5120749;27;19924;-75
2022/08/06 05:33:45;;;;;;;;;;;;;;;;;;5119841;27;19931;-76
2022/08/06 05:36:11;;;;;;;;;;;;;;;;;;5140199;27;19935;-76
2022/08/06 05:38:37;;;;;;;;;;;;;;;;;;5140054;27;19930;-76
2022/08/06 05:41:03;;;;;;;;;;;;;;;;;;5137855;27;19923;-75
2022/08/06 05:43:29;;;;;;;;;;;;;;;;;;5120617;27;19971;-76
2022/08/06 05:45:55;;;;;;;;;;;;;;;;;;5142746;27;19930;-76
2022/08/06 05:48:21;;;;;;;;;;;;;;;;;;5138425;27;20358;-76
2022/08/06 05:50:47;;;;;;;;;;;;;;;;;;5139870;27;20021;-76
2022/08/06 05:53:13;;;;;;;;;;;;;;;;;;5139956;27;19923;-77
2022/08/06 05:55:39;;;;;;;;;;;;;;;;;;5140563;27;19926;-77
2022/08/06 05:58:05;;;;;;;;;;;;;;;;;;5127517;27;19930;-77
2022/08/06 06:00:31;;;;;;;;;;;;;;;;;;5137112;27;19923;-77
2022/08/06 06:02:58;;;;;;;;;;;;;;;;;;5146655;27;20023;-77
2022/08/06 06:05:24;;;;;;;;;;;;;;;;;;5136363;27;19927;-77
2022/08/06 06:07:50;;;;;;;;;;;;;;;;;;5140478;27;19930;-78
2022/08/06 06:10:16;;;;;;;;;;;;;;;;;;5123214;27;19963;-77
2022/08/06 06:12:42;;;;;;;;;;;;;;;;;;5147057;27;19966;-78
2022/08/06 06:15:07;;;;;;;;;;;;;;;;;;5144729;27;20366;-77
2022/08/06 06:17:33;;;;;;;;;;;;;;;;;;5134716;27;20449;-77
2022/08/06 06:19:59;;;;;;;;;;;;;;;;;;5138143;27;19952;-77
2022/08/06 06:22:25;;;;;;;;;;;;;;;;;;5135131;27;19993;-77
2022/08/06 06:24:51;;;;;;;;;;;;;;;;;;5136986;27;20028;-78
2022/08/06 06:27:17;;;;;;;;;;;;;;;;;;5123951;27;19931;-77
2022/08/06 06:29:43;;;;;;;;;;;;;;;;;;5119593;27;21552;-76
2022/08/06 06:32:09;;;;;;;;;;;;;;;;;;5118587;27;20365;-78
2022/08/06 06:34:35;;;;;;;;;;;;;;;;;;5136616;27;20436;-79
2022/08/06 06:37:01;;;;;;;;;;;;;;;;;;5139781;27;19923;-77
2022/08/06 06:39:27;;;;;;;;;;;;;;;;;;5136393;27;20018;-76
2022/08/06 06:41:53;;;;;;;;;;;;;;;;;;5136783;27;20018;-77
2022/08/06 06:44:19;;;;;;;;;;;;;;;;;;5104101;27;19923;-76
2022/08/06 06:46:46;;;;;;;;;;;;;;;;;;5152543;27;19931;-77
2022/08/06 06:49:12;;;;;;;;;;;;;;;;;;5143462;27;19923;-79
2022/08/06 06:51:38;;;;;;;;;;;;;;;;;;5138536;27;19931;-78
2022/08/06 06:54:05;;;;;;;;;;;;;;;;;;5140154;27;20348;-78
2022/08/06 06:56:31;;;;;;;;;;;;;;;;;;5121552;27;20369;-82
2022/08/06 06:58:57;;;;;;;;;;;;;;;;;;5142280;27;19936;-78
2022/08/06 07:01:23;;;;;;;;;;;;;;;;;;5146816;27;19927;-77
2022/08/06 07:03:48;;;;;;;;;;;;;;;;;;5137100;27;19923;-77
2022/08/06 07:06:14;;;;;;;;;;;;;;;;;;5140660;27;19927;-77
2022/08/06 07:08:44;;;;;;;;;;;;;;;;;;5140558;27;19927;-78
2022/08/06 07:11:10;;;;;;;;;;;;;;;;;;5116866;27;19931;-81
2022/08/06 07:13:36;;;;;;;;;;;;;;;;;;5116790;27;19924;-78
2022/08/06 07:16:02;;;;;;;;;;;;;;;;;;5120617;27;19923;-75
2022/08/06 07:18:28;;;;;;;;;;;;;;;;;;5104564;28;20014;-77
2022/08/06 07:20:54;;;;;;;;;;;;;;;;;;5119269;27;20205;-78
2022/08/06 07:23:20;;;;;;;;;;;;;;;;;;5121915;27;19924;-77
2022/08/06 07:25:46;;;;;;;;;;;;;;;;;;5128539;27;19927;-77
2022/08/06 07:28:12;;;;;;;;;;;;;;;;;;5124095;27;19924;-77
2022/08/06 07:30:38;;;;;;;;;;;;;;;;;;5129573;27;20297;-77
2022/08/06 07:33:04;;;;;;;;;;;;;;;;;;5131823;27;19927;-77
2022/08/06 07:35:31;;;;;;;;;;;;;;;;;;5129421;27;20003;-77
2022/08/06 07:37:57;;;;;;;;;;;;;;;;;;5127438;27;20305;-78
2022/08/06 07:40:23;;;;;;;;;;;;;;;;;;5126453;27;19923;-77
2022/08/06 07:42:49;;;;;;;;;;;;;;;;;;5131156;27;20354;-77
2022/08/06 07:45:15;;;;;;;;;;;;;;;;;;5133366;27;19977;-77
2022/08/06 07:47:41;;;;;;;;;;;;;;;;;;5132070;27;19969;-77
2022/08/06 07:50:07;;;;;;;;;;;;;;;;;;5102384;28;19923;-77
2022/08/06 07:52:33;;;;;;;;;;;;;;;;;;5117126;27;19982;-77
2022/08/06 07:54:59;;;;;;;;;;;;;;;;;;5132267;27;19935;-78
2022/08/06 07:57:25;;;;;;;;;;;;;;;;;;5126292;27;19931;-78
2022/08/06 07:59:51;;;;;;;;;;;;;;;;;;5126167;27;20460;-78
2022/08/06 08:02:17;;;;;;;;;;;;;;;;;;5123051;27;20377;-78
2022/08/06 08:07:28;;;;;;;;;;;;;;;;;;5118057;27;20019;-78
2022/08/06 08:09:54;;;;;;;;;;;;;;;;;;5130506;27;20327;-77
2022/08/06 08:12:20;;;;;;;;;;;;;;;;;;5130427;27;19969;-78
2022/08/06 08:14:46;;;;;;;;;;;;;;;;;;5130658;27;20390;-77
2022/08/06 08:17:12;;;;;;;;;;;;;;;;;;5133438;27;19969;-77
2022/08/06 08:19:40;;;;;;;;;;;;;;;;;;5133865;27;21426;-77
2022/08/06 08:22:06;;;;;;;;;;;;;;;;;;5153761;27;19927;-78
2022/08/06 08:24:32;;;;;;;;;;;;;;;;;;5151126;27;20437;-77
2022/08/06 08:26:58;;;;;;;;;;;;;;;;;;5133053;27;20633;-78
2022/08/06 08:29:24;;;;;;;;;;;;;;;;;;5154413;27;19952;-77
2022/08/06 08:31:50;;;;;;;;;;;;;;;;;;5133528;27;19979;-78
2022/08/06 08:34:16;;;;;;;;;;;;;;;;;;5142158;27;19924;-77
2022/08/06 08:36:42;;;;;;;;;;;;;;;;;;5115226;27;19978;-78
2022/08/06 08:39:08;;;;;;;;;;;;;;;;;;5123329;27;19969;-78
2022/08/06 08:41:35;;;;;;;;;;;;;;;;;;5134679;27;19970;-78
2022/08/06 08:44:00;;;;;;;;;;;;;;;;;;5133773;27;19930;-78
2022/08/06 08:46:26;;;;;;;;;;;;;;;;;;5153729;27;20312;-78
2022/08/06 08:48:52;;;;;;;;;;;;;;;;;;5133278;27;19923;-78
2022/08/06 08:51:18;;;;;;;;;;;;;;;;;;5116930;27;20362;-77
2022/08/06 08:53:44;;;;;;;;;;;;;;;;;;5142650;27;19927;-78
2022/08/06 08:56:10;;;;;;;;;;;;;;;;;;5118857;27;19923;-78
2022/08/06 08:58:37;;;;;;;;;;;;;;;;;;5131470;28;19930;-78
2022/08/06 09:01:03;;;;;;;;;;;;;;;;;;5144581;27;19927;-77
2022/08/06 09:03:29;;;;;;;;;;;;;;;;;;5130625;27;19972;-77
2022/08/06 09:05:55;;;;;;;;;;;;;;;;;;5138011;27;19931;-77
2022/08/06 09:08:21;;;;;;;;;;;;;;;;;;5124104;27;20422;-78
2022/08/06 09:10:47;;;;;;;;;;;;;;;;;;5153623;27;19945;-78
2022/08/06 09:13:13;;;;;;;;;;;;;;;;;;5153331;27;20404;-78
2022/08/06 09:15:39;;;;;;;;;;;;;;;;;;5125580;27;20316;-78
2022/08/06 09:18:05;;;;;;;;;;;;;;;;;;5146428;27;19991;-78
2022/08/06 09:20:31;;;;;;;;;;;;;;;;;;5152810;27;19930;-78
2022/08/06 09:22:57;;;;;;;;;;;;;;;;;;5152265;27;19927;-78
2022/08/06 09:25:23;;;;;;;;;;;;;;;;;;5122973;27;19976;-78
2022/08/06 09:27:49;;;;;;;;;;;;;;;;;;5128560;27;19923;-78
2022/08/06 09:30:15;;;;;;;;;;;;;;;;;;5152826;27;19927;-78
2022/08/06 09:32:41;;;;;;;;;;;;;;;;;;5134796;27;19925;-78
2022/08/06 09:35:07;;;;;;;;;;;;;;;;;;5122988;27;20060;-78
2022/08/06 09:37:32;;;;;;;;;;;;;;;;;;5141427;27;20385;-78
2022/08/06 09:39:58;;;;;;;;;;;;;;;;;;5124727;27;20318;-79
2022/08/06 09:42:24;;;;;;;;;;;;;;;;;;5134646;27;19927;-78
2022/08/06 09:44:50;;;;;;;;;;;;;;;;;;5152554;27;20388;-78
2022/08/06 09:47:16;;;;;;;;;;;;;;;;;;5138681;27;19931;-78
2022/08/06 09:49:42;;;;;;;;;;;;;;;;;;5136687;27;19931;-78
2022/08/06 09:52:08;;;;;;;;;;;;;;;;;;5135315;27;19930;-78
2022/08/06 09:54:34;;;;;;;;;;;;;;;;;;5151646;27;19933;-79
2022/08/06 09:57:00;;;;;;;;;;;;;;;;;;5150623;27;19946;-79
2022/08/06 09:59:26;;;;;;;;;;;;;;;;;;5139521;27;20413;-78
2022/08/06 10:01:52;;;;;;;;;;;;;;;;;;5152608;27;20438;-79
2022/08/06 10:04:18;;;;;;;;;;;;;;;;;;5136666;27;20418;-78
2022/08/06 10:06:44;;;;;;;;;;;;;;;;;;5136476;27;20419;-78
2022/08/06 10:09:10;;;;;;;;;;;;;;;;;;5144558;27;20378;-78
2022/08/06 10:11:36;;;;;;;;;;;;;;;;;;5146987;27;19923;-78
2022/08/06 10:14:02;;;;;;;;;;;;;;;;;;5123817;27;20359;-79
2022/08/06 10:16:29;;;;;;;;;;;;;;;;;;5154018;27;20425;-79
2022/08/06 10:18:55;;;;;;;;;;;;;;;;;;5153440;27;19923;-79
2022/08/06 10:21:24;;;;;;;;;;;;;;;;;;5129755;27;19927;-79
2022/08/06 10:23:50;;;;;;;;;;;;;;;;;;5137421;27;20368;-78
2022/08/06 10:26:18;;;;;;;;;;;;;;;;;;5137710;27;19923;-77
2022/08/06 10:28:44;;;;;;;;;;;;;;;;;;5150363;27;19927;-78
2022/08/06 10:31:10;;;;;;;;;;;;;;;;;;5151659;27;19929;-78
2022/08/06 10:33:36;;;;;;;;;;;;;;;;;;5152824;27;19931;-77
2022/08/06 10:36:02;;;;;;;;;;;;;;;;;;5137761;27;19923;-78
2022/08/06 10:38:28;;;;;;;;;;;;;;;;;;5152778;27;19930;-78
2022/08/06 10:40:54;;;;;;;;;;;;;;;;;;5141470;27;20002;-78
2022/08/06 10:43:20;;;;;;;;;;;;;;;;;;5155650;27;20358;-78
2022/08/06 10:45:46;;;;;;;;;;;;;;;;;;5126407;27;20376;-78
2022/08/06 10:48:12;;;;;;;;;;;;;;;;;;5150612;27;20381;-78
2022/08/06 10:50:38;;;;;;;;;;;;;;;;;;5151430;27;19927;-78
2022/08/06 10:53:05;;;;;;;;;;;;;;;;;;5137110;27;19924;-79
2022/08/06 10:55:30;;;;;;;;;;;;;;;;;;5135228;27;19972;-79
2022/08/06 10:57:56;;;;;;;;;;;;;;;;;;5133686;27;19927;-79
2022/08/06 11:00:22;;;;;;;;;;;;;;;;;;5130910;27;19930;-79
2022/08/06 11:02:48;;;;;;;;;;;;;;;;;;5136248;27;19930;-79
2022/08/06 11:05:14;;;;;;;;;;;;;;;;;;5152874;27;19927;-79
2022/08/06 11:07:40;;;;;;;;;;;;;;;;;;5153929;27;19927;-78
2022/08/06 11:10:06;;;;;;;;;;;;;;;;;;5134116;27;19927;-79
2022/08/06 11:12:32;;;;;;;;;;;;;;;;;;5140512;27;19937;-78
2022/08/06 11:14:58;;;;;;;;;;;;;;;;;;5140880;27;19928;-78
2022/08/06 11:17:24;;;;;;;;;;;;;;;;;;5151122;27;20392;-79
2022/08/06 11:19:50;;;;;;;;;;;;;;;;;;5146582;27;20366;-79
2022/08/06 11:22:16;;;;;;;;;;;;;;;;;;5143130;27;20413;-78
2022/08/06 11:24:42;;;;;;;;;;;;;;;;;;5147443;27;19923;-78
2022/08/06 11:27:08;;;;;;;;;;;;;;;;;;5136429;27;19923;-78
2022/08/06 11:29:33;;;;;;;;;;;;;;;;;;5123521;27;20074;-78
2022/08/06 11:31:59;;;;;;;;;;;;;;;;;;5112264;27;19946;-79
2022/08/06 11:34:25;;;;;;;;;;;;;;;;;;5142154;27;19955;-78
2022/08/06 11:36:52;;;;;;;;;;;;;;;;;;5134000;27;19929;-78
2022/08/06 11:39:20;;;;;;;;;;;;;;;;;;5147384;27;19969;-78
2022/08/06 11:41:46;;;;;;;;;;;;;;;;;;5118344;27;19970;-78
2022/08/06 11:44:15;;;;;;;;;;;;;;;;;;5141024;27;20410;-78
2022/08/06 11:46:41;;;;;;;;;;;;;;;;;;5144756;27;19924;-77
2022/08/06 11:49:07;;;;;;;;;;;;;;;;;;5129882;27;19927;-78
2022/08/06 11:51:33;;;;;;;;;;;;;;;;;;5123259;27;19984;-78
2022/08/06 11:53:59;;;;;;;;;;;;;;;;;;5150409;27;19979;-78
2022/08/06 11:56:25;;;;;;;;;;;;;;;;;;5133830;27;19931;-78
2022/08/06 11:58:51;;;;;;;;;;;;;;;;;;5135742;27;19923;-79
2022/08/06 12:01:17;;;;;;;;;;;;;;;;;;5144015;27;19931;-78
2022/08/06 12:03:43;;;;;;;;;;;;;;;;;;5117065;27;19927;-78
2022/08/06 12:06:09;;;;;;;;;;;;;;;;;;5151777;27;20421;-78
2022/08/06 12:08:35;;;;;;;;;;;;;;;;;;5134112;27;20022;-78
2022/08/06 12:11:01;;;;;;;;;;;;;;;;;;5127361;27;19968;-78
2022/08/06 12:13:27;;;;;;;;;;;;;;;;;;5155092;27;19923;-77
2022/08/06 12:15:53;;;;;;;;;;;;;;;;;;5143826;27;20009;-78
2022/08/06 12:18:19;;;;;;;;;;;;;;;;;;5154115;27;20319;-78
2022/08/06 12:20:45;;;;;;;;;;;;;;;;;;5133922;27;19926;-78
2022/08/06 12:23:10;;;;;;;;;;;;;;;;;;5153213;27;20106;-78
2022/08/06 12:25:36;;;;;;;;;;;;;;;;;;5150822;27;20374;-77
2022/08/06 12:28:02;;;;;;;;;;;;;;;;;;5153193;27;20381;-78
2022/08/06 12:30:28;;;;;;;;;;;;;;;;;;5149402;27;20388;-78
2022/08/06 12:32:54;;;;;;;;;;;;;;;;;;5125123;27;20289;-78
2022/08/06 12:35:20;;;;;;;;;;;;;;;;;;5139274;27;20269;-78
2022/08/06 12:37:46;;;;;;;;;;;;;;;;;;5153535;27;20333;-78
2022/08/06 12:40:27;;;;;;;;;;;;;;;;;;5136106;27;19937;-78
2022/08/06 12:42:53;;;;;;;;;;;;;;;;;;5132999;27;20176;-78
2022/08/06 12:45:19;;;;;;;;;;;;;;;;;;5152714;27;20507;-78
2022/08/06 12:47:46;;;;;;;;;;;;;;;;;;5134426;27;20376;-78
2022/08/06 12:50:12;;;;;;;;;;;;;;;;;;5150605;27;19961;-77
2022/08/06 12:52:39;;;;;;;;;;;;;;;;;;5151881;27;19931;-78
2022/08/06 12:55:05;;;;;;;;;;;;;;;;;;5153218;27;19970;-79
2022/08/06 12:57:31;;;;;;;;;;;;;;;;;;5133811;27;19984;-79
2022/08/06 12:59:57;;;;;;;;;;;;;;;;;;5132889;27;19923;-79
2022/08/06 13:02:23;;;;;;;;;;;;;;;;;;5150897;27;20262;-78
2022/08/06 13:04:49;;;;;;;;;;;;;;;;;;5153047;27;20294;-78
2022/08/06 13:07:15;;;;;;;;;;;;;;;;;;5151440;27;20090;-78
2022/08/06 13:09:41;;;;;;;;;;;;;;;;;;5121142;27;19995;-78
2022/08/06 13:12:07;;;;;;;;;;;;;;;;;;5123405;27;19930;-78
2022/08/06 13:14:33;;;;;;;;;;;;;;;;;;5133215;27;19923;-78
2022/08/06 13:16:59;;;;;;;;;;;;;;;;;;5129120;28;19928;-79
2022/08/06 13:19:25;;;;;;;;;;;;;;;;;;5132726;28;19935;-78
2022/08/06 13:21:51;;;;;;;;;;;;;;;;;;5120534;28;19924;-77
2022/08/06 13:24:17;;;;;;;;;;;;;;;;;;5122069;28;19923;-77
2022/08/06 13:26:43;;;;;;;;;;;;;;;;;;5129842;28;19924;-78
2022/08/06 13:29:09;;;;;;;;;;;;;;;;;;5114279;28;19923;-77
2022/08/06 13:31:35;;;;;;;;;;;;;;;;;;5125824;28;19928;-77
2022/08/06 13:34:01;;;;;;;;;;;;;;;;;;5111384;28;19936;-78
2022/08/06 13:36:27;;;;;;;;;;;;;;;;;;5112036;28;20359;-78
2022/08/06 13:38:53;;;;;;;;;;;;;;;;;;5114281;27;19924;-78
2022/08/06 13:41:18;;;;;;;;;;;;;;;;;;5132324;27;20901;-78
2022/08/06 13:43:44;;;;;;;;;;;;;;;;;;5129569;27;20356;-77
2022/08/06 13:46:11;;;;;;;;;;;;;;;;;;5134539;27;19924;-77
2022/08/06 13:48:37;;;;;;;;;;;;;;;;;;5129011;27;19930;-78
2022/08/06 13:51:03;;;;;;;;;;;;;;;;;;5125755;27;19927;-79
2022/08/06 13:53:29;;;;;;;;;;;;;;;;;;5122867;27;19925;-79
2022/08/06 13:55:55;;;;;;;;;;;;;;;;;;5134685;27;19933;-79
2022/08/06 13:58:21;;;;;;;;;;;;;;;;;;5133989;27;19924;-80
2022/08/06 14:00:47;;;;;;;;;;;;;;;;;;5127276;27;19924;-79
2022/08/06 14:03:13;;;;;;;;;;;;;;;;;;5122378;27;19996;-78
2022/08/06 14:05:39;;;;;;;;;;;;;;;;;;5124530;27;20358;-78
2022/08/06 14:08:04;;;;;;;;;;;;;;;;;;5108346;27;20357;-79
2022/08/06 14:10:30;;;;;;;;;;;;;;;;;;5133092;27;20436;-78
2022/08/06 14:15:41;;;;;;;;;;;;;;;;;;5135531;27;19977;-78
2022/08/06 14:18:07;;;;;;;;;;;;;;;;;;5148242;27;19923;-79
2022/08/06 14:20:33;;;;;;;;;;;;;;;;;;5138210;27;19923;-79
2022/08/06 14:22:59;;;;;;;;;;;;;;;;;;5142839;27;20019;-79
2022/08/06 14:25:25;;;;;;;;;;;;;;;;;;5134034;27;19942;-78
2022/08/06 14:27:51;;;;;;;;;;;;;;;;;;5153694;27;19923;-79
2022/08/06 14:30:17;;;;;;;;;;;;;;;;;;5120789;27;19923;-78
2022/08/06 14:32:43;;;;;;;;;;;;;;;;;;5151689;27;19962;-77
2022/08/06 14:35:09;;;;;;;;;;;;;;;;;;5142444;27;19923;-78
2022/08/06 14:37:35;;;;;;;;;;;;;;;;;;5140732;27;20031;-78
2022/08/06 14:40:01;;;;;;;;;;;;;;;;;;5152403;27;19923;-78
2022/08/06 14:45:11;;;;;;;;;;;;;;;;;;5152900;27;19949;-77
2022/08/06 14:47:37;;;;;;;;;;;;;;;;;;5151642;27;19931;-77
2022/08/06 14:50:04;;;;;;;;;;;;;;;;;;5124770;27;20255;-78
2022/08/06 14:52:30;;;;;;;;;;;;;;;;;;5151568;27;19923;-78
2022/08/06 14:54:56;;;;;;;;;;;;;;;;;;5138554;27;19923;-78
2022/08/06 14:57:22;;;;;;;;;;;;;;;;;;5155098;27;19923;-79
2022/08/06 14:59:47;;;;;;;;;;;;;;;;;;5154459;27;19930;-78
2022/08/06 15:02:13;;;;;;;;;;;;;;;;;;5153824;27;19923;-78
2022/08/06 15:04:39;;;;;;;;;;;;;;;;;;5151724;27;20350;-78
2022/08/06 15:07:05;;;;;;;;;;;;;;;;;;5141577;27;19946;-79
2022/08/06 15:09:32;;;;;;;;;;;;;;;;;;5137645;27;19924;-79
2022/08/06 15:11:58;;;;;;;;;;;;;;;;;;5136778;27;19923;-79
2022/08/06 15:14:25;;;;;;;;;;;;;;;;;;5129852;27;20332;-78
2022/08/06 15:16:51;;;;;;;;;;;;;;;;;;5119033;27;20332;-79
2022/08/06 15:19:17;;;;;;;;;;;;;;;;;;5144386;27;19958;-79
2022/08/06 15:21:42;;;;;;;;;;;;;;;;;;5136282;27;19988;-78
2022/08/06 15:24:08;;;;;;;;;;;;;;;;;;5153657;27;19923;-78
2022/08/06 15:26:34;;;;;;;;;;;;;;;;;;5131040;27;19927;-78
2022/08/06 15:29:01;;;;;;;;;;;;;;;;;;5134383;27;20015;-79
2022/08/06 15:31:27;;;;;;;;;;;;;;;;;;5154831;27;20361;-79
2022/08/06 15:33:53;;;;;;;;;;;;;;;;;;5148393;27;19937;-79
2022/08/06 15:36:18;;;;;;;;;;;;;;;;;;5116956;27;19972;-78
2022/08/06 15:38:44;;;;;;;;;;;;;;;;;;5150208;27;20397;-78
2022/08/06 15:41:10;;;;;;;;;;;;;;;;;;5131669;27;20366;-78
2022/08/06 15:43:36;;;;;;;;;;;;;;;;;;5100953;27;19928;-78
2022/08/06 15:46:02;;;;;;;;;;;;;;;;;;5133933;27;20008;-79
2022/08/06 15:48:28;;;;;;;;;;;;;;;;;;5129357;27;19974;-79
2022/08/06 15:50:54;;;;;;;;;;;;;;;;;;5154033;27;19930;-78
2022/08/06 15:53:20;;;;;;;;;;;;;;;;;;5152557;27;19931;-79
2022/08/06 15:55:46;;;;;;;;;;;;;;;;;;5131359;27;19930;-79
2022/08/06 15:58:12;;;;;;;;;;;;;;;;;;5153570;27;20365;-79
2022/08/06 16:00:38;;;;;;;;;;;;;;;;;;5152230;27;19976;-79
2022/08/06 16:03:04;;;;;;;;;;;;;;;;;;5129920;27;19931;-79
2022/08/06 16:05:30;;;;;;;;;;;;;;;;;;5124484;27;19930;-79
2022/08/06 16:07:56;;;;;;;;;;;;;;;;;;5124033;27;19930;-78
2022/08/06 16:10:22;;;;;;;;;;;;;;;;;;5130522;27;19923;-79
2022/08/06 16:12:48;;;;;;;;;;;;;;;;;;5135865;27;19983;-78
2022/08/06 16:15:14;;;;;;;;;;;;;;;;;;5114072;27;20327;-78
2022/08/06 16:17:40;;;;;;;;;;;;;;;;;;5133929;27;19926;-80
2022/08/06 16:20:06;;;;;;;;;;;;;;;;;;5141671;27;19927;-79
2022/08/06 16:22:32;;;;;;;;;;;;;;;;;;5113910;27;19976;-79
2022/08/06 16:24:58;;;;;;;;;;;;;;;;;;5119094;27;19927;-78
2022/08/06 16:27:24;;;;;;;;;;;;;;;;;;5143821;27;19931;-79
2022/08/06 16:29:51;;;;;;;;;;;;;;;;;;5144363;27;20354;-79
2022/08/06 16:32:17;;;;;;;;;;;;;;;;;;5129316;27;19971;-77
2022/08/06 16:34:43;;;;;;;;;;;;;;;;;;5146422;27;19927;-79
2022/08/06 16:37:09;;;;;;;;;;;;;;;;;;5123805;27;19923;-79
2022/08/06 16:39:35;;;;;;;;;;;;;;;;;;5141441;27;19931;-79
2022/08/06 16:42:01;;;;;;;;;;;;;;;;;;5110379;27;20850;-79
2022/08/06 16:44:27;;;;;;;;;;;;;;;;;;5119588;27;19930;-78